Terminal Aerodrome Forecast
Issued by NWS Bismarck, ND

Home | Current Version | Previous Version | Text Only | Print | Product List | Glossary On
Versions: 1 2 3 4 5 6 7 8 9 10 11 12 13 14 15 16 17 18 19
000
FTUS43 KBIS 310535
TAFISN
TAF
KISN 310535Z 3106/0106 36004KT P6SM VCTS SCT080CB BKN150
      TEMPO 3106/3109 VRB15G25KT -TSRA BKN080CB OVC150
     FM310900 31009KT P6SM VCTS BKN080CB OVC150
     FM311200 29012KT P6SM SCT060 SCT150
     FM311500 28015G23KT P6SM FEW250
     FM010200 24005KT P6SM SKC=

USA.gov is the U.S. government's official web portal to all federal, state and local government web resources and services.